createdAt,value
2023-02-27T00:00:35.982Z,965.25
2023-02-27T00:01:35.960Z,965.23
2023-02-27T00:02:36.038Z,965.26
2023-02-27T00:03:35.978Z,965.26
2023-02-27T00:04:35.919Z,965.24
2023-02-27T00:05:35.925Z,965.25
2023-02-27T00:06:35.917Z,965.23
2023-02-27T00:07:35.913Z,965.22
2023-02-27T00:08:35.974Z,965.20
2023-02-27T00:09:35.863Z,965.20
2023-02-27T00:10:35.860Z,965.18
2023-02-27T00:11:35.838Z,965.17
2023-02-27T00:12:35.839Z,965.17
2023-02-27T00:13:35.812Z,965.18
2023-02-27T00:14:35.804Z,965.19
2023-02-27T00:15:35.816Z,965.20
2023-02-27T00:16:35.796Z,965.18
2023-02-27T00:17:35.773Z,965.20
2023-02-27T00:18:35.771Z,965.21
2023-02-27T00:19:35.789Z,965.15
2023-02-27T00:20:35.772Z,965.17
2023-02-27T00:21:36.869Z,965.16
2023-02-27T00:22:35.726Z,965.20
2023-02-27T00:23:35.711Z,965.15
2023-02-27T00:24:35.712Z,965.17
2023-02-27T00:25:35.721Z,965.15
2023-02-27T00:26:35.705Z,965.15
2023-02-27T00:27:35.692Z,965.19
2023-02-27T00:28:35.680Z,965.15
2023-02-27T00:29:35.683Z,965.17
2023-02-27T00:30:35.677Z,965.19
2023-02-27T00:31:35.662Z,965.12
2023-02-27T00:32:35.658Z,965.14
2023-02-27T00:33:35.626Z,965.17
2023-02-27T00:34:35.627Z,965.21
2023-02-27T00:35:35.608Z,965.18
2023-02-27T00:36:35.579Z,965.15
2023-02-27T00:37:35.575Z,965.16
2023-02-27T00:38:35.574Z,965.18
2023-02-27T00:39:35.564Z,965.15
2023-02-27T00:40:35.559Z,965.17
2023-02-27T00:41:35.554Z,965.14
2023-02-27T00:42:35.530Z,965.15
2023-02-27T00:43:35.527Z,965.14
2023-02-27T00:44:35.500Z,965.14
2023-02-27T00:45:35.555Z,965.13
2023-02-27T00:46:35.522Z,965.15
2023-02-27T00:47:35.493Z,965.17
2023-02-27T00:48:35.472Z,965.19
2023-02-27T00:49:35.460Z,965.19
2023-02-27T00:50:35.481Z,965.18
2023-02-27T00:51:35.469Z,965.16
2023-02-27T00:52:35.436Z,965.17
2023-02-27T00:53:35.448Z,965.17
2023-02-27T00:54:35.409Z,965.15
2023-02-27T00:55:35.412Z,965.15
2023-02-27T00:56:35.415Z,965.15
2023-02-27T00:57:35.410Z,965.14
2023-02-27T00:58:35.373Z,965.15
2023-02-27T00:59:35.417Z,965.12
2023-02-27T01:00:35.406Z,965.18
2023-02-27T01:01:35.350Z,965.14
2023-02-27T01:02:35.388Z,965.16
2023-02-27T01:03:35.350Z,965.15
2023-02-27T01:04:35.325Z,965.13
2023-02-27T01:05:35.347Z,965.14
2023-02-27T01:06:35.289Z,965.17
2023-02-27T01:07:35.287Z,965.12
2023-02-27T01:08:35.273Z,965.09
2023-02-27T01:09:35.273Z,965.12
2023-02-27T01:10:35.265Z,965.08
2023-02-27T01:11:35.258Z,965.09
2023-02-27T01:12:35.241Z,965.11
2023-02-27T01:13:35.240Z,965.13
2023-02-27T01:14:35.222Z,965.14
2023-02-27T01:15:35.222Z,965.17
2023-02-27T01:16:35.235Z,965.13
2023-02-27T01:17:35.224Z,965.19
2023-02-27T01:18:35.200Z,965.18
2023-02-27T01:19:35.182Z,965.15
2023-02-27T01:20:35.176Z,965.10
2023-02-27T01:21:35.159Z,965.10
2023-02-27T01:22:35.141Z,965.12
2023-02-27T01:23:35.166Z,965.08
2023-02-27T01:24:35.118Z,965.09
2023-02-27T01:25:35.131Z,965.10
2023-02-27T01:26:35.118Z,965.10
2023-02-27T01:27:35.144Z,965.10
2023-02-27T01:28:35.088Z,965.10
2023-02-27T01:29:35.117Z,965.08
2023-02-27T01:30:35.108Z,965.07
2023-02-27T01:31:35.074Z,965.06
2023-02-27T01:32:35.126Z,965.04
2023-02-27T01:33:35.047Z,965.04
2023-02-27T01:34:35.035Z,965.03
2023-02-27T01:35:41.071Z,964.99
2023-02-27T01:36:35.013Z,964.98
2023-02-27T01:37:35.013Z,965.01
2023-02-27T01:38:35.025Z,965.00
2023-02-27T01:39:34.995Z,964.98
2023-02-27T01:40:35.002Z,965.03
2023-02-27T01:41:34.975Z,964.97
2023-02-27T01:42:34.970Z,964.98
2023-02-27T01:43:34.943Z,965.01
2023-02-27T01:44:34.955Z,964.96
2023-02-27T01:45:34.955Z,964.95
2023-02-27T01:46:34.921Z,964.95
2023-02-27T01:47:34.912Z,965.01
2023-02-27T01:48:34.918Z,964.99
2023-02-27T01:49:34.896Z,964.96
2023-02-27T01:50:34.901Z,964.95
2023-02-27T01:51:34.870Z,964.97
2023-02-27T01:52:34.854Z,964.93
2023-02-27T01:53:34.851Z,964.92
2023-02-27T01:54:34.831Z,964.95
2023-02-27T01:55:34.862Z,964.92
2023-02-27T01:56:34.826Z,964.94
2023-02-27T01:57:34.814Z,964.98
2023-02-27T01:58:34.801Z,965.00
2023-02-27T01:59:34.824Z,964.96
2023-02-27T02:00:34.794Z,964.96
2023-02-27T02:01:34.859Z,964.97
2023-02-27T02:02:34.867Z,964.98
2023-02-27T02:03:34.756Z,964.98
2023-02-27T02:04:34.740Z,964.93
2023-02-27T02:05:34.766Z,964.95
2023-02-27T02:06:34.727Z,964.93
2023-02-27T02:07:34.718Z,964.97
2023-02-27T02:08:34.700Z,964.91
2023-02-27T02:09:34.704Z,964.94
2023-02-27T02:10:34.689Z,964.92
2023-02-27T02:11:34.672Z,964.91
2023-02-27T02:12:34.661Z,964.94
2023-02-27T02:13:34.688Z,964.98
2023-02-27T02:14:34.668Z,964.91
2023-02-27T02:15:34.666Z,964.94
2023-02-27T02:16:34.645Z,964.93
2023-02-27T02:17:34.619Z,964.94
2023-02-27T02:18:34.609Z,964.92
2023-02-27T02:19:34.604Z,964.96
2023-02-27T02:20:34.597Z,964.92
2023-02-27T02:21:34.574Z,964.89
2023-02-27T02:22:34.570Z,964.91
2023-02-27T02:23:34.567Z,964.94
2023-02-27T02:24:34.543Z,964.96
2023-02-27T02:25:34.558Z,964.96
2023-02-27T02:26:34.526Z,964.99
2023-02-27T02:27:34.525Z,964.98
2023-02-27T02:28:34.579Z,964.97
2023-02-27T02:29:34.496Z,964.97
2023-02-27T02:30:34.622Z,965.03
2023-02-27T02:31:34.640Z,964.97
2023-02-27T02:32:34.535Z,964.96
2023-02-27T02:33:34.506Z,964.94
2023-02-27T02:34:34.477Z,965.01
2023-02-27T02:35:34.484Z,964.95
2023-02-27T02:36:34.429Z,964.98
2023-02-27T02:37:34.422Z,964.99
2023-02-27T02:38:34.412Z,964.98
2023-02-27T02:39:34.408Z,964.97
2023-02-27T02:40:34.400Z,964.98
2023-02-27T02:41:34.394Z,964.92
2023-02-27T02:42:34.381Z,964.94
2023-02-27T02:43:34.373Z,964.94
2023-02-27T02:44:34.393Z,964.93
2023-02-27T02:45:34.373Z,964.93
2023-02-27T02:46:34.352Z,964.98
2023-02-27T02:47:34.330Z,964.90
2023-02-27T02:48:34.320Z,964.92
2023-02-27T02:49:34.311Z,964.90
2023-02-27T02:50:34.327Z,964.94
2023-02-27T02:51:34.323Z,964.89
2023-02-27T02:52:34.292Z,964.90
2023-02-27T02:53:37.361Z,964.88
2023-02-27T02:54:34.305Z,964.91
2023-02-27T02:55:34.264Z,964.92
2023-02-27T02:56:34.244Z,964.94
2023-02-27T02:57:34.236Z,964.99
2023-02-27T02:58:34.245Z,964.95
2023-02-27T02:59:34.217Z,964.93
2023-02-27T03:00:34.214Z,964.93
2023-02-27T03:01:34.233Z,964.93
2023-02-27T03:02:34.191Z,965.02
2023-02-27T03:03:34.199Z,964.96
2023-02-27T03:04:34.209Z,965.01
2023-02-27T03:05:34.186Z,965.01
2023-02-27T03:06:34.212Z,965.04
2023-02-27T03:07:34.148Z,965.01
2023-02-27T03:08:34.121Z,964.98
2023-02-27T03:09:34.146Z,965.00
2023-02-27T03:10:34.114Z,965.01
2023-02-27T03:11:34.094Z,965.03
2023-02-27T03:12:34.071Z,965.04
2023-02-27T03:13:34.066Z,965.03
2023-02-27T03:14:34.060Z,965.02
2023-02-27T03:15:34.092Z,965.04
2023-02-27T03:16:34.036Z,965.02
2023-02-27T03:17:34.028Z,965.03
2023-02-27T03:18:34.015Z,965.03
2023-02-27T03:19:34.006Z,965.07
2023-02-27T03:20:34.010Z,965.08
2023-02-27T03:21:33.994Z,965.06
2023-02-27T03:22:33.968Z,965.03
2023-02-27T03:23:33.973Z,965.07
2023-02-27T03:24:33.964Z,965.05
2023-02-27T03:25:33.964Z,965.06
2023-02-27T03:26:33.937Z,965.03
2023-02-27T03:27:33.943Z,964.99
2023-02-27T03:28:33.917Z,965.05
2023-02-27T03:29:33.911Z,965.03
2023-02-27T03:30:33.954Z,965.07
2023-02-27T03:31:34.014Z,965.01
2023-02-27T03:32:33.992Z,965.04
2023-02-27T03:33:33.907Z,965.06
2023-02-27T03:34:33.858Z,965.04
2023-02-27T03:35:33.860Z,965.04
2023-02-27T03:36:33.859Z,965.03
2023-02-27T03:37:33.830Z,965.04
2023-02-27T03:38:33.814Z,965.07
2023-02-27T03:39:33.830Z,965.11
2023-02-27T03:40:33.815Z,965.11
2023-02-27T03:41:33.789Z,965.10
2023-02-27T03:42:33.779Z,965.04
2023-02-27T03:43:33.770Z,965.12
2023-02-27T03:44:33.765Z,965.11
2023-02-27T03:45:33.771Z,965.09
2023-02-27T03:46:33.764Z,965.11
2023-02-27T03:47:33.738Z,965.13
2023-02-27T03:48:33.717Z,965.12
2023-02-27T03:49:33.713Z,965.12
2023-02-27T03:50:33.715Z,965.12
2023-02-27T03:51:33.700Z,965.21
2023-02-27T03:52:33.689Z,965.20
2023-02-27T03:53:33.670Z,965.18
2023-02-27T03:54:33.665Z,965.24
2023-02-27T03:55:33.711Z,965.25
2023-02-27T03:56:33.646Z,965.28
2023-02-27T03:57:33.652Z,965.30
2023-02-27T03:58:33.628Z,965.26
2023-02-27T03:59:33.621Z,965.26
2023-02-27T04:00:33.618Z,965.29
2023-02-27T04:01:33.689Z,965.27
2023-02-27T04:02:33.632Z,965.27
2023-02-27T04:03:33.586Z,965.32
2023-02-27T04:04:33.562Z,965.34
2023-02-27T04:05:33.589Z,965.48
2023-02-27T04:06:33.541Z,965.29
2023-02-27T04:07:33.537Z,965.29
2023-02-27T04:08:33.558Z,965.29
2023-02-27T04:09:33.513Z,965.34
2023-02-27T04:10:33.517Z,965.31
2023-02-27T04:11:33.497Z,965.33
2023-02-27T04:12:33.496Z,965.38
2023-02-27T04:13:33.478Z,965.37
2023-02-27T04:14:33.462Z,965.38
2023-02-27T04:15:33.486Z,965.38
2023-02-27T04:16:33.446Z,965.35
2023-02-27T04:17:33.446Z,965.38
2023-02-27T04:18:33.430Z,965.38
2023-02-27T04:19:33.422Z,965.38
2023-02-27T04:20:33.422Z,965.40
2023-02-27T04:21:33.397Z,965.40
2023-02-27T04:22:33.387Z,965.44
2023-02-27T04:23:33.388Z,965.38
2023-02-27T04:24:33.366Z,965.40
2023-02-27T04:25:33.376Z,965.37
2023-02-27T04:26:33.349Z,965.50
2023-02-27T04:27:33.353Z,965.36
2023-02-27T04:28:33.328Z,965.37
2023-02-27T04:29:33.326Z,965.38
2023-02-27T04:30:33.329Z,965.34
2023-02-27T04:31:33.403Z,965.37
2023-02-27T04:32:33.446Z,965.40
2023-02-27T04:33:33.303Z,965.40
2023-02-27T04:34:33.277Z,965.39
2023-02-27T04:35:33.291Z,965.38
2023-02-27T04:36:33.262Z,965.32
2023-02-27T04:37:33.250Z,965.33
2023-02-27T04:38:33.249Z,965.34
2023-02-27T04:39:33.230Z,965.32
2023-02-27T04:40:33.188Z,965.31
2023-02-27T04:41:33.224Z,965.29
2023-02-27T04:42:33.211Z,965.38
2023-02-27T04:43:33.195Z,965.28
2023-02-27T04:44:33.189Z,965.30
2023-02-27T04:45:33.255Z,965.32
2023-02-27T04:46:33.184Z,965.31
2023-02-27T04:47:33.152Z,965.32
2023-02-27T04:48:33.162Z,965.35
2023-02-27T04:49:33.139Z,965.32
2023-02-27T04:50:33.133Z,965.36
2023-02-27T04:51:33.143Z,965.36
2023-02-27T04:52:33.104Z,965.34
2023-02-27T04:53:33.107Z,965.36
2023-02-27T04:54:33.089Z,965.37
2023-02-27T04:55:33.104Z,965.38
2023-02-27T04:56:33.069Z,965.38
2023-02-27T04:57:33.077Z,965.34
2023-02-27T04:58:33.052Z,965.36
2023-02-27T04:59:33.067Z,965.37
2023-02-27T05:00:33.069Z,965.35
2023-02-27T05:01:33.044Z,965.38
2023-02-27T05:02:33.104Z,965.38
2023-02-27T05:03:33.006Z,965.37
2023-02-27T05:04:32.992Z,965.41
2023-02-27T05:05:33.010Z,965.39
2023-02-27T05:06:32.986Z,965.38
2023-02-27T05:07:32.980Z,965.35
2023-02-27T05:08:32.959Z,965.38
2023-02-27T05:09:32.958Z,965.38
2023-02-27T05:10:32.963Z,965.37
2023-02-27T05:11:32.938Z,965.32
2023-02-27T05:12:32.960Z,965.40
2023-02-27T05:13:32.897Z,965.40
2023-02-27T05:14:32.898Z,965.33
2023-02-27T05:15:32.981Z,965.41
2023-02-27T05:16:32.953Z,965.45
2023-02-27T05:17:33.024Z,965.41
2023-02-27T05:18:32.912Z,965.44
2023-02-27T05:19:32.856Z,965.40
2023-02-27T05:20:32.860Z,965.41
2023-02-27T05:21:32.827Z,965.39
2023-02-27T05:22:32.813Z,965.45
2023-02-27T05:23:32.805Z,965.41
2023-02-27T05:24:32.814Z,965.48
2023-02-27T05:25:32.797Z,965.46
2023-02-27T05:26:32.776Z,965.46
2023-02-27T05:27:32.764Z,965.47
2023-02-27T05:28:32.761Z,965.44
2023-02-27T05:29:32.759Z,965.42
2023-02-27T05:30:32.804Z,965.48
2023-02-27T05:31:32.791Z,965.49
2023-02-27T05:32:32.739Z,965.52
2023-02-27T05:33:32.722Z,965.51
2023-02-27T05:34:32.713Z,965.52
2023-02-27T05:35:32.764Z,965.50
2023-02-27T05:36:32.680Z,965.53
2023-02-27T05:37:32.612Z,965.54
2023-02-27T05:38:32.604Z,965.52
2023-02-27T05:39:32.594Z,965.56
2023-02-27T05:40:32.604Z,965.56
2023-02-27T05:41:32.566Z,965.57
2023-02-27T05:42:32.584Z,965.56
2023-02-27T05:43:32.563Z,965.60
2023-02-27T05:44:32.559Z,965.58
2023-02-27T05:45:32.623Z,965.58
2023-02-27T05:46:32.559Z,965.61
2023-02-27T05:47:32.512Z,965.60
2023-02-27T05:48:32.532Z,965.62
2023-02-27T05:49:32.499Z,965.59
2023-02-27T05:50:32.502Z,965.65
2023-02-27T05:51:32.478Z,965.61
2023-02-27T05:52:32.478Z,965.64
2023-02-27T05:53:32.460Z,965.64
2023-02-27T05:54:32.449Z,965.65
2023-02-27T05:55:32.444Z,965.64
2023-02-27T05:56:32.466Z,965.65
2023-02-27T05:57:32.440Z,965.63
2023-02-27T05:58:32.420Z,965.66
2023-02-27T05:59:32.411Z,965.66
2023-02-27T06:00:32.405Z,965.68
2023-02-27T06:01:32.381Z,965.66
2023-02-27T06:02:32.462Z,965.68
2023-02-27T06:03:32.427Z,965.72
2023-02-27T06:04:32.389Z,965.71
2023-02-27T06:05:32.364Z,965.69
2023-02-27T06:06:32.329Z,965.71
2023-02-27T06:07:32.323Z,965.69
2023-02-27T06:08:32.326Z,965.76
2023-02-27T06:09:32.299Z,965.79
2023-02-27T06:10:32.319Z,965.77
2023-02-27T06:11:32.333Z,965.70
2023-02-27T06:12:32.280Z,965.72
2023-02-27T06:13:32.278Z,965.69
2023-02-27T06:14:32.263Z,965.72
2023-02-27T06:15:32.254Z,965.71
2023-02-27T06:16:32.271Z,965.71
2023-02-27T06:17:32.229Z,965.69
2023-02-27T06:18:32.216Z,965.73
2023-02-27T06:19:32.210Z,965.72
2023-02-27T06:20:32.219Z,965.74
2023-02-27T06:21:32.190Z,965.73
2023-02-27T06:22:32.180Z,965.76
2023-02-27T06:23:32.167Z,965.75
2023-02-27T06:24:32.164Z,965.75
2023-02-27T06:25:32.161Z,965.77
2023-02-27T06:26:32.176Z,965.77
2023-02-27T06:27:32.130Z,965.77
2023-02-27T06:28:32.124Z,965.76
2023-02-27T06:29:32.119Z,965.78
2023-02-27T06:30:32.169Z,965.81
2023-02-27T06:31:32.095Z,965.84
2023-02-27T06:32:32.092Z,965.82
2023-02-27T06:33:32.067Z,965.85
2023-02-27T06:34:32.064Z,965.86
2023-02-27T06:35:32.150Z,965.83
2023-02-27T06:36:32.077Z,965.86
2023-02-27T06:37:32.043Z,965.93
2023-02-27T06:38:32.024Z,965.89
2023-02-27T06:39:32.007Z,965.89
2023-02-27T06:40:32.009Z,965.90
2023-02-27T06:41:31.995Z,965.91
2023-02-27T06:42:31.976Z,965.92
2023-02-27T06:43:32.260Z,965.91
2023-02-27T06:44:31.968Z,965.92
2023-02-27T06:45:31.957Z,965.88
2023-02-27T06:46:31.979Z,965.92
2023-02-27T06:47:31.932Z,965.93
2023-02-27T06:48:31.931Z,965.98
2023-02-27T06:49:31.966Z,965.94
2023-02-27T06:50:31.920Z,965.92
2023-02-27T06:51:31.886Z,965.93
2023-02-27T06:52:31.892Z,965.95
2023-02-27T06:53:31.867Z,965.93
2023-02-27T06:54:31.869Z,965.95
2023-02-27T06:55:31.864Z,965.98
2023-02-27T06:56:31.860Z,965.95
2023-02-27T06:57:31.843Z,965.98
2023-02-27T06:58:31.834Z,965.97
2023-02-27T06:59:31.816Z,966.05
2023-02-27T07:00:31.833Z,966.00
2023-02-27T07:01:31.861Z,966.03
2023-02-27T07:02:31.783Z,965.98
2023-02-27T07:03:31.766Z,966.04
2023-02-27T07:04:31.786Z,965.99
2023-02-27T07:05:31.760Z,966.07
2023-02-27T07:07:32.955Z,966.04
2023-02-27T07:07:41.079Z,966.09
2023-02-27T07:08:31.735Z,966.06
2023-02-27T07:09:31.711Z,966.07
2023-02-27T07:10:31.706Z,966.11
2023-02-27T07:11:31.707Z,966.11
2023-02-27T07:12:31.692Z,966.11
2023-02-27T07:13:31.679Z,966.07
2023-02-27T07:14:31.673Z,966.15
2023-02-27T07:15:31.652Z,966.15
2023-02-27T07:16:31.703Z,966.14
2023-02-27T07:17:31.670Z,966.12
2023-02-27T07:18:31.629Z,966.10
2023-02-27T07:19:31.616Z,966.16
2023-02-27T07:20:31.629Z,966.19
2023-02-27T07:21:31.608Z,966.13
2023-02-27T07:22:31.607Z,966.18
2023-02-27T07:23:31.588Z,966.12
2023-02-27T07:24:31.572Z,966.19
2023-02-27T07:25:31.558Z,966.16
2023-02-27T07:26:31.564Z,966.16
2023-02-27T07:27:31.534Z,966.15
2023-02-27T07:28:31.776Z,966.24
2023-02-27T07:29:31.527Z,966.21
2023-02-27T07:30:31.531Z,966.19
2023-02-27T07:31:31.580Z,966.24
2023-02-27T07:32:31.493Z,966.26
2023-02-27T07:33:31.483Z,966.28
2023-02-27T07:34:31.483Z,966.24
2023-02-27T07:35:31.538Z,966.24
2023-02-27T07:36:39.929Z,966.26
2023-02-27T07:37:31.442Z,966.24
2023-02-27T07:38:31.441Z,966.25
2023-02-27T07:39:31.434Z,966.22
2023-02-27T07:40:31.461Z,966.21
2023-02-27T07:41:31.478Z,966.21
2023-02-27T07:42:31.401Z,966.24
2023-02-27T07:43:31.529Z,966.22
2023-02-27T07:44:31.464Z,966.24
2023-02-27T07:45:31.370Z,966.29
2023-02-27T07:46:31.740Z,966.21
2023-02-27T07:47:31.372Z,966.24
2023-02-27T07:48:31.360Z,966.22
2023-02-27T07:49:31.345Z,966.27
2023-02-27T07:50:31.325Z,966.26
2023-02-27T07:51:31.485Z,966.25
2023-02-27T07:52:31.367Z,966.31
2023-02-27T07:53:31.289Z,966.30
2023-02-27T07:54:32.188Z,966.22
2023-02-27T07:55:31.298Z,966.20
2023-02-27T07:56:31.289Z,966.25
2023-02-27T07:57:31.368Z,966.23
2023-02-27T07:58:31.252Z,966.23
2023-02-27T07:59:31.255Z,966.25
2023-02-27T08:00:31.237Z,966.29
2023-02-27T08:01:31.349Z,966.27
2023-02-27T08:02:31.264Z,966.27
2023-02-27T08:03:31.198Z,966.23
2023-02-27T08:04:31.307Z,966.30
2023-02-27T08:05:31.194Z,966.24
2023-02-27T08:06:31.224Z,966.27
2023-02-27T08:07:31.162Z,966.28
2023-02-27T08:08:31.151Z,966.27
2023-02-27T08:09:31.161Z,966.27
2023-02-27T08:10:31.208Z,966.29
2023-02-27T08:11:31.211Z,966.32
2023-02-27T08:12:31.155Z,966.34
2023-02-27T08:13:59.009Z,966.30
2023-02-27T08:14:31.099Z,966.41
2023-02-27T08:15:31.104Z,966.35
2023-02-27T08:16:31.943Z,966.41
2023-02-27T08:17:31.066Z,966.30
2023-02-27T08:18:31.057Z,966.38
2023-02-27T08:19:31.066Z,966.36
2023-02-27T08:20:31.046Z,966.34
2023-02-27T08:21:31.246Z,966.35
2023-02-27T08:22:31.153Z,966.31
2023-02-27T08:23:31.012Z,966.39
2023-02-27T08:24:31.003Z,966.39
2023-02-27T08:25:31.022Z,966.37
2023-02-27T08:26:31.244Z,966.37
2023-02-27T08:27:30.992Z,966.37
2023-02-27T08:28:30.973Z,966.41
2023-02-27T08:29:31.030Z,966.44
2023-02-27T08:30:30.967Z,966.41
2023-02-27T08:31:31.032Z,966.40
2023-02-27T08:32:31.007Z,966.36
2023-02-27T08:33:30.937Z,966.49
2023-02-27T08:34:30.937Z,966.46
2023-02-27T08:35:31.059Z,966.50
2023-02-27T08:36:30.885Z,966.44
2023-02-27T08:37:30.866Z,966.44
2023-02-27T08:38:30.865Z,966.42
2023-02-27T08:39:30.839Z,966.37
2023-02-27T08:40:30.834Z,966.44
2023-02-27T08:41:30.896Z,966.40
2023-02-27T08:42:30.860Z,966.39
2023-02-27T08:43:30.789Z,966.44
2023-02-27T08:44:30.790Z,966.54
2023-02-27T08:45:30.844Z,966.41
2023-02-27T08:46:30.886Z,966.39
2023-02-27T08:47:30.768Z,966.42
2023-02-27T08:48:30.762Z,966.40
2023-02-27T08:49:30.759Z,966.45
2023-02-27T08:50:30.762Z,966.45
2023-02-27T08:51:30.864Z,966.43
2023-02-27T08:52:30.739Z,966.46
2023-02-27T08:53:30.716Z,966.48
2023-02-27T08:54:30.711Z,966.55
2023-02-27T08:55:30.751Z,966.46
2023-02-27T08:56:30.689Z,966.52
2023-02-27T08:57:30.712Z,966.48
2023-02-27T08:58:30.682Z,966.56
2023-02-27T08:59:30.690Z,966.59
2023-02-27T09:00:30.630Z,966.58
2023-02-27T09:01:31.074Z,966.55
2023-02-27T09:02:30.622Z,966.54
2023-02-27T09:03:30.603Z,966.64
2023-02-27T09:04:30.680Z,966.49
2023-02-27T09:05:30.588Z,966.60
2023-02-27T09:06:30.985Z,966.69
2023-02-27T09:07:30.587Z,966.65
2023-02-27T09:08:30.571Z,966.65
2023-02-27T09:09:30.576Z,966.74
2023-02-27T09:10:30.543Z,966.61
2023-02-27T09:11:30.892Z,966.58
2023-02-27T09:12:30.531Z,966.62
2023-02-27T09:13:30.537Z,966.69
2023-02-27T09:14:30.531Z,966.64
2023-02-27T09:15:30.477Z,966.57
2023-02-27T09:16:30.841Z,966.67
2023-02-27T09:17:30.472Z,966.69
2023-02-27T09:18:30.487Z,966.63
2023-02-27T09:19:30.459Z,966.69
2023-02-27T09:20:30.584Z,966.61
2023-02-27T09:21:30.460Z,966.65
2023-02-27T09:22:30.434Z,966.45
2023-02-27T09:23:30.455Z,966.71
2023-02-27T09:24:30.439Z,966.66
2023-02-27T09:25:30.451Z,966.62
2023-02-27T09:26:42.253Z,966.81
2023-02-27T09:27:30.389Z,966.60
2023-02-27T09:28:30.366Z,966.59
2023-02-27T09:29:30.358Z,966.63
2023-02-27T09:30:30.390Z,966.60
2023-02-27T09:31:32.946Z,966.68
2023-02-27T09:32:30.641Z,966.74
2023-02-27T09:33:30.311Z,966.60
2023-02-27T09:34:30.330Z,966.57
2023-02-27T09:35:30.327Z,966.65
2023-02-27T09:36:30.412Z,966.72
2023-02-27T09:37:30.321Z,966.69
2023-02-27T09:38:30.276Z,966.60
2023-02-27T09:39:30.311Z,966.60
2023-02-27T09:40:30.242Z,966.58
2023-02-27T09:41:30.365Z,966.65
2023-02-27T09:42:30.259Z,966.73
2023-02-27T09:43:30.247Z,966.67
2023-02-27T09:44:44.932Z,966.64
2023-02-27T09:45:30.206Z,966.64
2023-02-27T09:46:30.266Z,966.68
2023-02-27T09:47:30.236Z,966.66
2023-02-27T09:48:30.156Z,966.58
2023-02-27T09:49:30.154Z,966.65
2023-02-27T09:50:30.147Z,966.68
2023-02-27T09:51:30.362Z,966.72
2023-02-27T09:52:30.126Z,966.68
2023-02-27T09:53:30.141Z,966.91
2023-02-27T09:54:30.120Z,966.70
2023-02-27T09:55:30.094Z,966.68
2023-02-27T09:56:30.184Z,966.66
2023-02-27T09:57:30.096Z,966.69
2023-02-27T09:58:30.085Z,966.62
2023-02-27T09:59:30.057Z,966.73
2023-02-27T10:00:30.087Z,966.62
2023-02-27T10:01:30.269Z,966.69
2023-02-27T10:02:30.032Z,966.75
2023-02-27T10:03:30.097Z,966.80
2023-02-27T10:04:30.035Z,966.80
2023-02-27T10:05:29.994Z,966.80
2023-02-27T10:06:30.487Z,966.69
2023-02-27T10:07:29.993Z,966.73
2023-02-27T10:08:30.000Z,966.71
2023-02-27T10:09:29.964Z,966.77
2023-02-27T10:10:30.026Z,966.72
2023-02-27T10:11:29.962Z,966.72
2023-02-27T10:12:29.918Z,966.74
2023-02-27T10:13:29.915Z,966.66
2023-02-27T10:14:29.981Z,966.70
2023-02-27T10:15:29.912Z,966.72
2023-02-27T10:16:30.355Z,966.86
2023-02-27T10:17:29.970Z,966.72
2023-02-27T10:18:30.989Z,966.79
2023-02-27T10:19:29.858Z,966.81
2023-02-27T10:20:29.861Z,967.00
2023-02-27T10:21:31.117Z,966.91
2023-02-27T10:22:29.884Z,966.87
2023-02-27T10:23:29.894Z,966.79
2023-02-27T10:24:29.874Z,966.89
2023-02-27T10:25:31.934Z,966.85
2023-02-27T10:26:29.837Z,966.81
2023-02-27T10:27:29.830Z,966.78
2023-02-27T10:28:29.782Z,966.84
2023-02-27T10:29:29.805Z,966.88
2023-02-27T10:30:32.325Z,966.86
2023-02-27T10:31:30.248Z,966.80
2023-02-27T10:32:29.817Z,966.86
2023-02-27T10:33:29.737Z,966.95
2023-02-27T10:34:29.730Z,966.91
2023-02-27T10:35:29.715Z,966.90
2023-02-27T10:36:34.002Z,967.00
2023-02-27T10:37:29.727Z,966.93
2023-02-27T10:38:29.710Z,966.93
2023-02-27T10:39:29.661Z,966.89
2023-02-27T10:40:29.655Z,966.99
2023-02-27T10:41:30.119Z,966.93
2023-02-27T10:42:29.641Z,966.90
2023-02-27T10:43:29.711Z,966.95
2023-02-27T10:44:29.604Z,966.92
2023-02-27T10:45:29.621Z,966.87
2023-02-27T10:46:29.988Z,966.93
2023-02-27T10:47:29.578Z,967.08
2023-02-27T10:48:29.565Z,967.06
2023-02-27T10:49:29.571Z,966.93
2023-02-27T10:50:29.582Z,967.16
2023-02-27T10:51:29.822Z,967.10
2023-02-27T10:52:29.519Z,967.05
2023-02-27T10:53:29.544Z,966.97
2023-02-27T10:54:29.519Z,967.22
2023-02-27T10:55:29.502Z,967.14
2023-02-27T10:56:29.836Z,967.19
2023-02-27T10:57:29.465Z,967.04
2023-02-27T10:58:29.513Z,967.02
2023-02-27T10:59:29.449Z,967.02
2023-02-27T11:00:29.480Z,967.06
2023-02-27T11:01:29.845Z,967.01
2023-02-27T11:02:29.472Z,966.97
2023-02-27T11:03:29.452Z,967.00
2023-02-27T11:04:29.475Z,967.00
2023-02-27T11:05:29.402Z,966.96
2023-02-27T11:06:29.475Z,966.93
2023-02-27T11:07:29.388Z,966.95
2023-02-27T11:08:29.372Z,966.89
2023-02-27T11:09:29.349Z,967.02
2023-02-27T11:10:29.339Z,966.96
2023-02-27T11:11:29.614Z,966.97
2023-02-27T11:12:29.393Z,967.01
2023-02-27T11:13:29.342Z,967.01
2023-02-27T11:14:29.357Z,966.87
2023-02-27T11:15:29.365Z,966.96
2023-02-27T11:16:29.282Z,966.85
2023-02-27T11:17:29.282Z,966.91
2023-02-27T11:18:29.358Z,967.09
2023-02-27T11:19:29.246Z,966.81
2023-02-27T11:20:29.240Z,966.85
2023-02-27T11:21:29.853Z,967.02
2023-02-27T11:22:29.218Z,966.80
2023-02-27T11:23:29.250Z,966.98
2023-02-27T11:24:29.190Z,966.89
2023-02-27T11:25:29.184Z,966.92
2023-02-27T11:26:29.201Z,966.88
2023-02-27T11:27:29.214Z,966.79
2023-02-27T11:28:29.160Z,966.77
2023-02-27T11:29:29.181Z,966.99
2023-02-27T11:30:29.133Z,966.79
2023-02-27T11:31:29.739Z,966.78
2023-02-27T11:32:29.180Z,966.89
2023-02-27T11:33:29.123Z,966.81
2023-02-27T11:34:29.101Z,966.83
2023-02-27T11:35:29.142Z,967.10
2023-02-27T11:36:29.101Z,966.92
2023-02-27T11:37:29.065Z,966.87
2023-02-27T11:38:29.118Z,966.87
2023-02-27T11:39:29.060Z,966.83
2023-02-27T11:40:29.048Z,966.86
2023-02-27T11:41:29.438Z,966.82
2023-02-27T11:42:29.020Z,966.79
2023-02-27T11:43:29.016Z,966.89
2023-02-27T11:44:38.595Z,966.88
2023-02-27T11:46:04.640Z,966.80
2023-02-27T11:46:46.961Z,966.81
2023-02-27T11:47:29.008Z,966.90
2023-02-27T11:48:28.958Z,966.82
2023-02-27T11:49:28.947Z,966.84
2023-02-27T11:50:28.937Z,966.92
2023-02-27T11:51:29.253Z,966.99
2023-02-27T11:52:28.940Z,966.84
2023-02-27T11:53:28.924Z,967.15
2023-02-27T11:54:28.917Z,967.01
2023-02-27T11:55:28.893Z,966.87
2023-02-27T11:56:28.897Z,966.90
2023-02-27T11:57:28.929Z,966.83
2023-02-27T11:58:28.851Z,966.89
2023-02-27T11:59:28.872Z,966.86
2023-02-27T12:00:28.838Z,966.92
2023-02-27T12:01:29.886Z,966.87
2023-02-27T12:02:28.876Z,967.02
2023-02-27T12:03:28.827Z,966.91
2023-02-27T12:04:28.808Z,966.89
2023-02-27T12:05:28.804Z,966.93
2023-02-27T12:06:28.790Z,966.87
2023-02-27T12:07:28.815Z,966.89
2023-02-27T12:08:28.775Z,967.00
2023-02-27T12:09:28.754Z,966.86
2023-02-27T12:10:28.779Z,966.86
2023-02-27T12:11:29.147Z,966.80
2023-02-27T12:12:28.722Z,966.80
2023-02-27T12:13:28.758Z,966.75
2023-02-27T12:14:28.770Z,966.83
2023-02-27T12:15:28.701Z,966.84
2023-02-27T12:16:30.932Z,966.88
2023-02-27T12:17:28.710Z,966.83
2023-02-27T12:18:28.651Z,966.78
2023-02-27T12:19:28.663Z,966.72
2023-02-27T12:20:28.669Z,966.77
2023-02-27T12:21:28.650Z,966.88
2023-02-27T12:22:28.650Z,966.66
2023-02-27T12:23:28.609Z,966.75
2023-02-27T12:24:28.657Z,966.84
2023-02-27T12:25:28.590Z,966.79
2023-02-27T12:26:28.956Z,966.77
2023-02-27T12:27:28.584Z,966.76
2023-02-27T12:28:28.564Z,966.80